createdAt,value
2018-01-01T00:02:03.546Z,3.91
2018-01-01T00:04:32.237Z,4.11
2018-01-01T00:07:00.884Z,4.06
2018-01-01T00:09:29.552Z,3.92
2018-01-01T00:11:59.019Z,3.93
2018-01-01T00:14:27.580Z,4.00
2018-01-01T00:16:56.229Z,3.84
2018-01-01T00:19:24.959Z,3.95
2018-01-01T00:21:53.643Z,3.58
2018-01-01T00:24:22.232Z,3.54
2018-01-01T00:26:50.900Z,3.43
2018-01-01T00:29:20.364Z,3.57
2018-01-01T00:31:49.828Z,3.78
2018-01-01T00:34:18.815Z,3.77
2018-01-01T00:36:47.500Z,3.76
2018-01-01T00:39:16.081Z,3.78
2018-01-01T00:41:45.083Z,3.87
2018-01-01T00:44:13.766Z,3.82
2018-01-01T00:46:42.451Z,3.68
2018-01-01T00:49:11.184Z,3.73
2018-01-01T00:51:40.535Z,3.77
2018-01-01T00:54:09.120Z,3.76
2018-01-01T00:56:37.905Z,3.63
2018-01-01T00:59:06.530Z,3.43
2018-01-01T01:01:35.949Z,3.55
2018-01-01T01:04:04.641Z,3.52
2018-01-01T01:06:33.360Z,3.63
2018-01-01T01:09:02.002Z,3.54
2018-01-01T01:11:31.960Z,3.51
2018-01-01T01:14:00.545Z,3.74
2018-01-01T01:16:29.232Z,3.83
2018-01-01T01:18:57.916Z,4.12
2018-01-01T01:21:26.590Z,3.91
2018-01-01T01:23:55.288Z,3.67
2018-01-01T01:26:24.282Z,3.65
2018-01-01T01:28:52.918Z,3.55
2018-01-01T01:31:22.364Z,3.63
2018-01-01T01:33:51.100Z,3.85
2018-01-01T01:36:20.558Z,4.02
2018-01-01T01:38:49.244Z,4.00
2018-01-01T01:41:18.028Z,3.84
2018-01-01T01:43:46.714Z,3.68
2018-01-01T01:46:15.368Z,3.72
2018-01-01T01:48:47.832Z,3.87
2018-01-01T01:51:17.280Z,4.05
2018-01-01T01:53:45.945Z,3.96
2018-01-01T01:56:15.039Z,3.87
2018-01-01T01:58:43.741Z,3.90
2018-01-01T02:01:12.374Z,4.09
2018-01-01T02:03:42.036Z,4.01
2018-01-01T02:06:10.683Z,3.89
2018-01-01T02:08:39.405Z,3.79
2018-01-01T02:11:08.191Z,3.71
2018-01-01T02:13:36.885Z,3.68
2018-01-01T02:16:05.461Z,3.74
2018-01-01T02:18:34.148Z,3.78
2018-01-01T02:21:03.041Z,3.89
2018-01-01T02:23:31.727Z,3.72
2018-01-01T02:26:00.611Z,3.87
2018-01-01T02:28:29.186Z,3.99
2018-01-01T02:30:57.882Z,3.83
2018-01-01T02:33:27.084Z,3.81
2018-01-01T02:35:55.769Z,3.85
2018-01-01T02:38:24.390Z,3.87
2018-01-01T02:40:53.962Z,3.64
2018-01-01T02:43:22.648Z,3.67
2018-01-01T02:45:51.264Z,3.61
2018-01-01T02:48:20.426Z,3.72
2018-01-01T02:50:49.042Z,3.78
2018-01-01T02:53:17.688Z,3.68
2018-01-01T02:55:46.580Z,3.90
2018-01-01T02:58:15.237Z,3.75
2018-01-01T03:00:43.951Z,3.66
2018-01-01T03:03:12.944Z,3.61
2018-01-01T03:05:41.610Z,3.66
2018-01-01T03:08:10.221Z,3.60
2018-01-01T03:10:38.902Z,3.39
2018-01-01T03:13:08.359Z,3.31
2018-01-01T03:15:37.810Z,3.27
2018-01-01T03:18:06.802Z,3.34
2018-01-01T03:20:35.441Z,3.49
2018-01-01T03:23:04.886Z,3.48
2018-01-01T03:25:33.571Z,3.48
2018-01-01T03:28:02.258Z,3.45
2018-01-01T03:30:30.888Z,3.32
2018-01-01T03:33:00.451Z,3.31
2018-01-01T03:35:28.988Z,3.40
2018-01-01T03:37:58.436Z,3.27
2018-01-01T03:40:27.482Z,3.26
2018-01-01T03:42:56.214Z,3.33
2018-01-01T03:45:24.787Z,3.25
2018-01-01T03:47:53.584Z,3.44
2018-01-01T03:50:22.270Z,3.34
2018-01-01T03:52:50.955Z,3.19
2018-01-01T03:55:19.644Z,2.98
2018-01-01T03:57:48.227Z,3.04
2018-01-01T04:00:16.793Z,2.58
2018-01-01T04:02:45.593Z,2.63
2018-01-01T04:05:14.127Z,2.70
2018-01-01T04:07:43.585Z,2.91
2018-01-01T04:10:12.369Z,2.82
2018-01-01T04:12:41.014Z,2.81
2018-01-01T04:15:09.740Z,2.83
2018-01-01T04:17:38.536Z,2.81
2018-01-01T04:20:07.111Z,3.16
2018-01-01T04:22:35.797Z,3.14
2018-01-01T04:25:04.523Z,2.94
2018-01-01T04:27:33.278Z,3.04
2018-01-01T04:30:01.963Z,3.10
2018-01-01T04:32:30.704Z,2.75
2018-01-01T04:34:59.243Z,2.83
2018-01-01T04:37:27.811Z,2.86
2018-01-01T04:39:56.596Z,2.76
2018-01-01T04:42:25.281Z,2.58
2018-01-01T04:44:53.918Z,2.55
2018-01-01T04:47:23.476Z,2.44
2018-01-01T04:49:52.162Z,2.59
2018-01-01T04:52:20.847Z,2.58
2018-01-01T04:54:49.889Z,2.70
2018-01-01T04:57:19.348Z,2.55
2018-01-01T04:59:48.034Z,2.65
2018-01-01T05:02:16.713Z,2.59
2018-01-01T05:04:45.357Z,2.64
2018-01-01T05:07:14.695Z,2.73
2018-01-01T05:09:43.489Z,2.87
2018-01-01T05:12:12.175Z,2.80
2018-01-01T05:14:40.749Z,3.03
2018-01-01T05:17:09.720Z,2.99
2018-01-01T05:19:38.440Z,2.74
2018-01-01T05:22:07.223Z,2.73
2018-01-01T05:24:36.009Z,2.70
2018-01-01T05:27:04.695Z,2.54
2018-01-01T05:29:33.337Z,2.44
2018-01-01T05:32:01.935Z,2.67
2018-01-01T05:34:30.597Z,2.66
2018-01-01T05:37:00.057Z,2.67
2018-01-01T05:39:29.049Z,2.59
2018-01-01T05:41:57.675Z,2.46
2018-01-01T05:44:27.141Z,2.73
2018-01-01T05:46:55.985Z,2.87
2018-01-01T05:49:24.708Z,2.75
2018-01-01T05:51:53.346Z,2.86
2018-01-01T05:54:22.904Z,2.86
2018-01-01T05:56:51.588Z,2.94
2018-01-01T05:59:20.131Z,3.01
2018-01-01T06:01:48.748Z,3.00
2018-01-01T06:04:17.435Z,2.97
2018-01-01T06:06:46.076Z,3.09
2018-01-01T06:09:15.732Z,3.48
2018-01-01T06:11:44.362Z,3.78
2018-01-01T06:14:13.823Z,3.99
2018-01-01T06:16:42.816Z,4.23
2018-01-01T06:19:11.461Z,4.57
2018-01-01T06:21:40.187Z,4.74
2018-01-01T06:24:08.864Z,4.60
2018-01-01T06:26:37.559Z,4.38
2018-01-01T06:29:06.104Z,4.24
2018-01-01T06:31:35.679Z,4.26
2018-01-01T06:34:05.151Z,4.48
2018-01-01T06:36:33.837Z,4.64
2018-01-01T06:39:02.513Z,5.03
2018-01-01T06:41:31.208Z,5.09
2018-01-01T06:43:59.894Z,5.53
2018-01-01T06:46:28.634Z,5.47
2018-01-01T06:48:57.379Z,5.84
2018-01-01T06:51:26.055Z,6.27
2018-01-01T06:53:54.735Z,6.42
2018-01-01T06:56:23.276Z,6.55
2018-01-01T06:58:52.722Z,6.70
2018-01-01T07:01:21.603Z,6.91
2018-01-01T07:03:50.231Z,7.15
2018-01-01T07:06:18.829Z,7.47
2018-01-01T07:08:48.693Z,7.41
2018-01-01T07:11:17.240Z,7.75
2018-01-01T07:13:45.783Z,8.12
2018-01-01T07:16:14.640Z,8.39
2018-01-01T07:18:43.336Z,8.70
2018-01-01T07:21:11.957Z,8.96
2018-01-01T07:23:41.728Z,9.54
2018-01-01T07:26:10.370Z,9.69
2018-01-01T07:28:39.100Z,9.79
2018-01-01T07:31:08.031Z,10.09
2018-01-01T07:33:37.491Z,9.76
2018-01-01T07:36:06.181Z,9.63
2018-01-01T07:38:34.956Z,9.04
2018-01-01T07:41:03.657Z,8.76
2018-01-01T07:43:33.095Z,8.86
2018-01-01T07:46:01.809Z,9.02
2018-01-01T07:48:30.456Z,9.31
2018-01-01T07:50:59.000Z,9.19
2018-01-01T07:53:28.141Z,9.98
2018-01-01T07:55:56.808Z,10.01
2018-01-01T07:58:26.268Z,10.16
2018-01-01T08:00:55.457Z,10.39
2018-01-01T08:03:24.089Z,10.20
2018-01-01T08:05:53.553Z,10.24
2018-01-01T08:08:22.437Z,10.38
2018-01-01T08:10:51.065Z,10.22
2018-01-01T08:13:21.860Z,10.25
2018-01-01T08:15:50.405Z,10.12
2018-01-01T08:18:19.065Z,10.76
2018-01-01T08:20:48.537Z,10.21
2018-01-01T08:23:17.101Z,10.33
2018-01-01T08:25:45.744Z,10.73
2018-01-01T08:28:15.399Z,10.58
2018-01-01T08:30:44.095Z,10.97
2018-01-01T08:33:12.782Z,11.45
2018-01-01T08:35:41.457Z,11.11
2018-01-01T08:38:10.156Z,11.51
2018-01-01T08:40:38.839Z,11.36
2018-01-01T08:43:07.623Z,11.36
2018-01-01T08:45:36.310Z,12.33
2018-01-01T08:48:04.995Z,12.87
2018-01-01T08:50:33.725Z,13.09
2018-01-01T08:53:03.189Z,13.18
2018-01-01T08:55:31.807Z,13.45
2018-01-01T08:58:01.471Z,12.94
2018-01-01T09:00:30.922Z,12.96
2018-01-01T09:03:00.390Z,12.79
2018-01-01T09:05:29.329Z,13.18
2018-01-01T09:07:58.672Z,12.70
2018-01-01T09:10:27.318Z,12.74
2018-01-01T09:12:57.075Z,13.43
2018-01-01T09:15:25.761Z,13.53
2018-01-01T09:17:54.446Z,13.51
2018-01-01T09:20:23.231Z,13.35
2018-01-01T09:22:51.915Z,13.26
2018-01-01T09:25:20.603Z,13.68
2018-01-01T09:27:49.543Z,14.31
2018-01-01T09:30:19.004Z,14.27
2018-01-01T09:32:47.625Z,14.31
2018-01-01T09:35:17.180Z,14.47
2018-01-01T09:37:45.873Z,14.15
2018-01-01T09:40:14.459Z,14.43
2018-01-01T09:42:43.297Z,14.42
2018-01-01T09:45:12.753Z,14.35
2018-01-01T09:47:41.439Z,14.20
2018-01-01T09:50:10.432Z,14.71
2018-01-01T09:52:39.117Z,14.90
2018-01-01T09:55:07.739Z,15.39
2018-01-01T09:57:37.456Z,15.07
2018-01-01T10:00:06.917Z,14.64
2018-01-01T10:02:35.463Z,14.77
2018-01-01T10:05:04.180Z,14.78
2018-01-01T10:07:32.828Z,14.95
2018-01-01T10:10:01.551Z,15.04
2018-01-01T10:12:30.347Z,15.29
2018-01-01T10:14:59.032Z,15.36
2018-01-01T10:17:27.671Z,15.56
2018-01-01T10:19:57.492Z,15.49
2018-01-01T10:22:26.161Z,15.53
2018-01-01T10:24:55.617Z,15.19
2018-01-01T10:27:24.346Z,15.59
2018-01-01T10:29:53.703Z,15.71
2018-01-01T10:32:22.332Z,15.98
2018-01-01T10:34:51.846Z,15.97
2018-01-01T10:37:21.295Z,15.96
2018-01-01T10:39:49.936Z,15.86
2018-01-01T10:42:18.728Z,15.99
2018-01-01T10:44:47.451Z,15.80
2018-01-01T10:47:16.135Z,15.60
2018-01-01T10:49:44.931Z,15.22
2018-01-01T10:52:13.618Z,15.70
2018-01-01T10:54:42.239Z,15.53
2018-01-01T10:57:11.660Z,16.13
2018-01-01T10:59:40.387Z,16.22
2018-01-01T11:02:09.074Z,16.63
2018-01-01T11:04:37.857Z,16.47
2018-01-01T11:07:06.507Z,16.99
2018-01-01T11:09:35.230Z,17.59
2018-01-01T11:12:04.024Z,17.32
2018-01-01T11:14:32.710Z,16.81
2018-01-01T11:17:01.396Z,17.11
2018-01-01T11:19:30.488Z,16.86
2018-01-01T11:21:59.066Z,16.46
2018-01-01T11:24:27.860Z,17.34
2018-01-01T11:26:56.455Z,16.99
2018-01-01T11:29:25.015Z,17.03
2018-01-01T11:31:53.708Z,17.00
2018-01-01T11:34:22.699Z,17.41
2018-01-01T11:36:51.386Z,17.88
2018-01-01T11:39:20.040Z,18.04
2018-01-01T11:41:48.908Z,18.15
2018-01-01T11:44:18.326Z,18.80
2018-01-01T11:46:47.052Z,18.54
2018-01-01T11:49:15.846Z,18.73
2018-01-01T11:51:44.535Z,18.47
2018-01-01T11:54:13.108Z,18.35
2018-01-01T11:56:41.902Z,18.63
2018-01-01T11:59:10.587Z,18.41
2018-01-01T12:01:39.224Z,17.94
2018-01-01T12:04:08.981Z,18.62
2018-01-01T12:06:37.667Z,18.68
2018-01-01T12:09:06.453Z,18.64
2018-01-01T12:11:35.146Z,19.05
2018-01-01T12:14:03.863Z,19.21
2018-01-01T12:16:33.334Z,18.89
2018-01-01T12:19:02.303Z,19.29
2018-01-01T12:21:31.831Z,19.11
2018-01-01T12:24:00.466Z,18.67
2018-01-01T12:26:29.932Z,19.46
2018-01-01T12:28:58.699Z,19.72
2018-01-01T12:31:27.343Z,19.96
2018-01-01T12:33:55.973Z,19.66
2018-01-01T12:36:24.606Z,19.56
2018-01-01T12:38:54.058Z,19.09
2018-01-01T12:41:22.852Z,19.31
2018-01-01T12:43:51.538Z,19.39
2018-01-01T12:46:20.174Z,19.41
2018-01-01T12:48:50.852Z,19.83
2018-01-01T12:51:19.434Z,19.74
2018-01-01T12:53:48.125Z,19.77
2018-01-01T12:56:17.007Z,19.60
2018-01-01T12:58:46.039Z,19.42
2018-01-01T13:01:14.687Z,19.50
2018-01-01T13:03:43.497Z,19.89
2018-01-01T13:06:12.221Z,19.50
2018-01-01T13:08:40.952Z,18.42
2018-01-01T13:11:09.683Z,18.05
2018-01-01T13:13:39.152Z,18.51
2018-01-01T13:16:07.723Z,18.75
2018-01-01T13:18:36.661Z,18.36
2018-01-01T13:21:06.124Z,18.62
2018-01-01T13:23:34.809Z,18.54
2018-01-01T13:26:03.541Z,18.59
2018-01-01T13:28:32.960Z,18.02
2018-01-01T13:31:01.679Z,17.85
2018-01-01T13:33:30.368Z,17.84
2018-01-01T13:35:59.014Z,17.52
2018-01-01T13:38:27.441Z,17.66
2018-01-01T13:40:56.324Z,17.81
2018-01-01T13:43:25.009Z,17.68
2018-01-01T13:45:53.560Z,17.34
2018-01-01T13:48:22.380Z,17.13
2018-01-01T13:50:51.066Z,17.14
2018-01-01T13:53:19.689Z,16.80
2018-01-01T13:55:49.308Z,16.34
2018-01-01T13:58:18.760Z,16.27
2018-01-01T14:00:47.256Z,15.88
2018-01-01T14:03:15.719Z,15.64
2018-01-01T14:05:44.146Z,15.59
2018-01-01T14:08:13.398Z,15.24
2018-01-01T14:10:41.864Z,15.13
2018-01-01T14:13:10.294Z,14.76
2018-01-01T14:15:39.486Z,14.51
2018-01-01T14:18:09.047Z,14.27
2018-01-01T14:20:37.470Z,14.25
2018-01-01T14:23:07.470Z,14.24
2018-01-01T14:25:35.925Z,14.08
2018-01-01T14:28:04.341Z,13.94
2018-01-01T14:30:32.751Z,13.82
2018-01-01T14:33:02.173Z,13.75
2018-01-01T14:35:30.595Z,13.56
2018-01-01T14:37:59.010Z,13.41
2018-01-01T14:40:28.243Z,13.26
2018-01-01T14:42:56.676Z,13.10
2018-01-01T14:45:54.606Z,13.02
2018-01-01T14:48:23.102Z,13.15
2018-01-01T14:50:51.561Z,13.08
2018-01-01T14:53:20.022Z,12.99
2018-01-01T14:55:49.210Z,12.97
2018-01-01T14:58:18.397Z,12.65
2018-01-01T15:00:47.797Z,12.52
2018-01-01T15:03:16.986Z,12.26
2018-01-01T15:05:45.402Z,12.30
2018-01-01T15:08:13.865Z,12.15
2018-01-01T15:10:42.293Z,12.01
2018-01-01T15:13:10.707Z,11.97
2018-01-01T15:15:39.178Z,12.08
2018-01-01T15:18:07.593Z,11.95
2018-01-01T15:20:36.014Z,11.86
2018-01-01T15:23:04.482Z,11.76
2018-01-01T15:25:32.906Z,11.54
2018-01-01T15:28:01.330Z,11.40
2018-01-01T15:30:30.008Z,11.22
2018-01-01T15:32:58.454Z,11.16
2018-01-01T15:35:26.881Z,11.02
2018-01-01T15:37:55.350Z,11.00
2018-01-01T15:40:23.775Z,11.06
2018-01-01T15:42:52.210Z,11.18
2018-01-01T15:45:20.890Z,11.14
2018-01-01T15:47:49.316Z,11.18
2018-01-01T15:50:17.745Z,11.56
2018-01-01T15:52:46.357Z,11.63
2018-01-01T15:55:14.787Z,11.65
2018-01-01T15:57:43.977Z,11.42
2018-01-01T16:00:12.463Z,11.31
2018-01-01T16:02:41.659Z,11.23
2018-01-01T16:05:10.854Z,11.10
2018-01-01T16:07:40.290Z,11.00
2018-01-01T16:10:08.724Z,11.15
2018-01-01T16:12:37.150Z,11.36
2018-01-01T16:15:05.626Z,11.50
2018-01-01T16:17:34.054Z,11.40
2018-01-01T16:20:02.485Z,11.41
2018-01-01T16:22:31.898Z,11.32
2018-01-01T16:25:00.322Z,11.26
2018-01-01T16:27:28.755Z,11.27
2018-01-01T16:29:57.222Z,10.88
2018-01-01T16:32:26.410Z,10.76
2018-01-01T16:34:55.602Z,10.76
2018-01-01T16:37:24.997Z,10.80
2018-01-01T16:39:54.219Z,10.86
2018-01-01T16:42:23.406Z,10.92
2018-01-01T16:44:52.630Z,11.00
2018-01-01T16:47:21.109Z,10.28
2018-01-01T16:49:49.530Z,10.05
2018-01-01T16:52:18.165Z,10.01
2018-01-01T16:54:46.589Z,9.95
2018-01-01T16:57:15.014Z,10.01
2018-01-01T16:59:44.249Z,9.83
2018-01-01T17:02:12.672Z,9.78
2018-01-01T17:04:41.094Z,9.64
2018-01-01T17:07:09.773Z,9.68
2018-01-01T17:09:38.214Z,9.58
2018-01-01T17:12:06.640Z,9.60
2018-01-01T17:14:35.134Z,9.49
2018-01-01T17:17:03.558Z,9.28
2018-01-01T17:19:31.978Z,8.95
2018-01-01T17:22:00.457Z,9.00
2018-01-01T17:24:28.878Z,8.93
2018-01-01T17:26:57.306Z,8.87
2018-01-01T17:29:26.570Z,8.75
2018-01-01T17:31:55.082Z,8.68
2018-01-01T17:34:24.289Z,8.50
2018-01-01T17:36:52.802Z,8.46
2018-01-01T17:39:21.260Z,8.35
2018-01-01T17:41:49.719Z,8.39
2018-01-01T17:44:18.989Z,8.39
2018-01-01T17:46:47.453Z,8.52
2018-01-01T17:49:15.922Z,8.50
2018-01-01T17:51:44.413Z,8.60
2018-01-01T17:54:12.874Z,8.67
2018-01-01T17:56:41.336Z,8.62
2018-01-01T17:59:09.838Z,8.74
2018-01-01T18:01:38.302Z,8.89
2018-01-01T18:04:06.760Z,8.96
2018-01-01T18:06:36.390Z,8.86
2018-01-01T18:09:04.893Z,8.63
2018-01-01T18:11:33.320Z,8.54
2018-01-01T18:14:02.753Z,8.42
2018-01-01T18:16:31.182Z,8.56
2018-01-01T18:18:59.602Z,8.66
2018-01-01T18:21:28.087Z,8.67
2018-01-01T18:23:56.822Z,8.79
2018-01-01T18:26:26.179Z,8.56
2018-01-01T18:28:54.650Z,8.51
2018-01-01T18:31:23.074Z,8.61
2018-01-01T18:33:51.529Z,8.41
2018-01-01T18:36:19.997Z,8.19
2018-01-01T18:38:48.414Z,8.02
2018-01-01T18:41:16.870Z,7.64
2018-01-01T18:43:45.451Z,7.31
2018-01-01T18:46:13.903Z,7.30
2018-01-01T18:48:43.085Z,7.15
2018-01-01T18:51:11.546Z,7.10
2018-01-01T18:53:40.022Z,7.13
2018-01-01T18:56:08.442Z,7.09
2018-01-01T18:58:37.662Z,7.12
2018-01-01T19:01:06.082Z,7.21
2018-01-01T19:03:34.499Z,7.27
2018-01-01T19:06:03.723Z,7.27
2018-01-01T19:08:32.137Z,7.33
2018-01-01T19:11:00.555Z,7.29
2018-01-01T19:13:29.883Z,7.42
2018-01-01T19:15:58.310Z,7.40
2018-01-01T19:18:26.734Z,7.09
2018-01-01T19:20:55.193Z,7.06
2018-01-01T19:23:24.378Z,6.82
2018-01-01T19:25:52.801Z,6.49
2018-01-01T19:28:21.491Z,6.50
2018-01-01T19:30:49.922Z,6.79
2018-01-01T19:33:18.358Z,7.08
2018-01-01T19:35:46.818Z,7.31
2018-01-01T19:38:15.246Z,7.17
2018-01-01T19:40:43.674Z,7.27
2018-01-01T19:43:12.145Z,7.23
2018-01-01T19:45:41.384Z,7.26
2018-01-01T19:48:09.829Z,7.45
2018-01-01T19:50:38.526Z,7.49
2018-01-01T19:53:06.954Z,7.67
2018-01-01T19:55:35.389Z,7.78
2018-01-01T19:58:03.862Z,7.54
2018-01-01T20:00:32.290Z,7.69
2018-01-01T20:03:00.709Z,7.56
2018-01-01T20:05:30.845Z,7.55
2018-01-01T20:07:59.261Z,7.55
2018-01-01T20:10:27.682Z,7.04
2018-01-01T20:12:57.102Z,6.99
2018-01-01T20:15:25.549Z,6.85
2018-01-01T20:17:53.969Z,6.69
2018-01-01T20:20:22.422Z,6.44
2018-01-01T20:22:51.662Z,6.46
2018-01-01T20:25:20.082Z,6.41
2018-01-01T20:27:48.542Z,6.39
2018-01-01T20:30:16.962Z,6.37
2018-01-01T20:32:46.150Z,6.24
2018-01-01T20:35:15.370Z,6.23
2018-01-01T20:37:44.559Z,6.20
2018-01-01T20:40:13.834Z,6.07
2018-01-01T20:42:42.330Z,5.97
2018-01-01T20:45:11.518Z,5.94
2018-01-01T20:47:39.998Z,5.89
2018-01-01T20:50:09.337Z,6.02
2018-01-01T20:52:37.766Z,5.95
2018-01-01T20:55:06.185Z,5.99
2018-01-01T20:57:34.666Z,6.07
2018-01-01T21:00:03.888Z,6.41
2018-01-01T21:02:32.310Z,6.31
2018-01-01T21:05:00.942Z,6.28
2018-01-01T21:07:29.362Z,6.38
2018-01-01T21:09:57.794Z,6.30
2018-01-01T21:12:27.029Z,6.27
2018-01-01T21:14:55.445Z,6.20
2018-01-01T21:17:23.866Z,6.26
2018-01-01T21:19:52.533Z,6.22
2018-01-01T21:22:21.716Z,6.25
2018-01-01T21:24:50.900Z,6.29
2018-01-01T21:27:19.354Z,6.30
2018-01-01T21:29:47.777Z,6.19
2018-01-01T21:32:16.957Z,6.11
2018-01-01T21:34:45.431Z,5.99
2018-01-01T21:37:14.638Z,6.16
2018-01-01T21:39:43.826Z,6.18
2018-01-01T21:42:12.453Z,6.25
2018-01-01T21:44:40.867Z,6.28
2018-01-01T21:47:09.313Z,6.34
2018-01-01T21:49:37.786Z,6.29
2018-01-01T21:52:06.210Z,6.30
2018-01-01T21:54:34.635Z,6.42
2018-01-01T21:57:03.869Z,6.32
2018-01-01T21:59:32.342Z,6.47
2018-01-01T22:02:01.502Z,6.37
2018-01-01T22:04:30.721Z,6.34
2018-01-01T22:06:59.902Z,6.30
2018-01-01T22:09:29.088Z,6.40
2018-01-01T22:11:57.540Z,6.42
2018-01-01T22:14:25.954Z,6.45
2018-01-01T22:16:55.142Z,6.37
2018-01-01T22:19:25.266Z,6.30
2018-01-01T22:21:53.678Z,6.43
2018-01-01T22:24:22.096Z,6.51
2018-01-01T22:26:50.738Z,6.45
2018-01-01T22:29:19.913Z,6.23
2018-01-01T22:31:49.093Z,6.28
2018-01-01T22:34:17.714Z,6.18
2018-01-01T22:36:46.893Z,6.04
2018-01-01T22:39:16.069Z,6.17
2018-01-01T22:41:44.630Z,6.23
2018-01-01T22:44:13.041Z,6.23
2018-01-01T22:46:42.226Z,6.10
2018-01-01T22:49:10.689Z,6.32
2018-01-01T22:51:39.101Z,6.40
2018-01-01T22:54:07.517Z,6.51
2018-01-01T22:56:35.977Z,6.35
2018-01-01T22:59:05.158Z,6.33
2018-01-01T23:01:33.570Z,6.04
2018-01-01T23:04:02.154Z,5.94
2018-01-01T23:06:30.569Z,6.12
2018-01-01T23:08:58.982Z,6.17
2018-01-01T23:11:27.433Z,6.02
2018-01-01T23:13:55.845Z,6.05
2018-01-01T23:16:25.033Z,6.10
2018-01-01T23:18:54.993Z,5.98
2018-01-01T23:21:23.406Z,6.00
2018-01-01T23:23:51.844Z,5.55
2018-01-01T23:26:20.533Z,5.77
2018-01-01T23:28:48.982Z,5.62
2018-01-01T23:31:18.165Z,5.53
2018-01-01T23:33:46.626Z,5.69
2018-01-01T23:36:15.042Z,5.67
2018-01-01T23:38:44.961Z,5.83
2018-01-01T23:41:14.186Z,5.89
2018-01-01T23:43:42.597Z,5.88
2018-01-01T23:46:11.010Z,5.87
2018-01-01T23:48:40.242Z,5.97
2018-01-01T23:51:08.654Z,6.04
2018-01-01T23:53:37.089Z,5.96
2018-01-01T23:56:05.542Z,5.90
2018-01-01T23:58:33.953Z,5.89
